Time;durP1;ratioP1;P1;durP2;ratioP2;P2;SDS_P1;SDS_P2;PMS_P1;PMS_P2;Temp;Humidity;BMP_temperature;BMP_pressure;BME280_temperature;BME280_humidity;BME280_pressure;Samples;Min_cycle;Max_cycle;Signal;HPM_P1;HPM_P2
2022/12/28 00:01:17;;;;;;;0.20;0.20;;;;;;;2.09;100.00;96950.03;4945122;28;20043;-72
2022/12/28 00:04:07;;;;;;;0.20;0.20;;;;;;;2.16;100.00;96944.84;4945892;28;20046;-73
2022/12/28 00:06:53;;;;;;;0.15;0.15;;;;;;;2.20;100.00;96931.09;4946440;28;20350;-74
2022/12/28 00:09:39;;;;;;;0.20;0.20;;;;;;;2.22;100.00;96923.00;4945465;28;20673;-73
2022/12/28 00:12:25;;;;;;;0.20;0.20;;;;;;;2.23;100.00;96916.69;4946465;28;20268;-74
2022/12/28 00:15:11;;;;;;;0.20;0.20;;;;;;;2.20;100.00;96911.78;4946537;28;20455;-72
2022/12/28 00:17:57;;;;;;;0.20;0.20;;;;;;;2.14;100.00;96899.31;4946396;28;20054;-71
2022/12/28 00:20:42;;;;;;;0.20;0.20;;;;;;;2.18;100.00;96909.34;4945578;28;20130;-74
2022/12/28 00:23:29;;;;;;;0.20;0.20;;;;;;;2.05;100.00;96892.50;4945933;28;20035;-71
2022/12/28 00:26:15;;;;;;;0.20;0.20;;;;;;;2.14;100.00;96888.75;4946093;28;20183;-74
2022/12/28 00:29:02;;;;;;;0.20;0.20;;;;;;;2.09;100.00;96880.56;4943392;28;20405;-74
2022/12/28 00:31:47;;;;;;;0.20;0.20;;;;;;;2.18;100.00;96874.19;4944747;28;20055;-72
2022/12/28 00:34:33;;;;;;;0.20;0.20;;;;;;;2.13;100.00;96861.53;4945217;28;20271;-72
2022/12/28 00:37:20;;;;;;;0.10;0.10;;;;;;;2.04;100.00;96856.56;4943887;28;20884;-75
2022/12/28 00:40:06;;;;;;;0.10;0.10;;;;;;;2.01;100.00;96849.00;4944816;28;20551;-74
2022/12/28 00:42:52;;;;;;;0.17;0.17;;;;;;;1.98;100.00;96841.47;4946484;28;20054;-74
2022/12/28 00:45:38;;;;;;;0.20;0.20;;;;;;;2.01;100.00;96849.81;4946357;28;20113;-73
2022/12/28 00:48:24;;;;;;;0.20;0.20;;;;;;;2.06;100.00;96849.28;4944307;28;20635;-72
2022/12/28 00:51:18;;;;;;;0.20;0.20;;;;;;;2.12;100.00;96835.34;4942792;28;20073;-74
2022/12/28 00:54:04;;;;;;;0.20;0.20;;;;;;;2.08;100.00;96842.78;4943136;28;20550;-71
2022/12/28 00:56:49;;;;;;;0.20;0.20;;;;;;;2.07;100.00;96832.44;4946569;28;20125;-73
2022/12/28 00:59:35;;;;;;;0.20;0.20;;;;;;;2.10;100.00;96829.41;4942231;28;20046;-72
2022/12/28 01:02:21;;;;;;;0.20;0.20;;;;;;;2.11;100.00;96826.59;4973390;28;20051;-73
2022/12/28 01:05:08;;;;;;;0.10;0.10;;;;;;;2.11;100.00;96823.97;4965529;28;20588;-74
2022/12/28 01:07:55;;;;;;;0.20;0.20;;;;;;;2.13;100.00;96829.88;4975425;28;20066;-73
2022/12/28 01:10:41;;;;;;;0.20;0.20;;;;;;;2.18;100.00;96826.69;4965415;28;20550;-74
2022/12/28 01:13:28;;;;;;;0.20;0.20;;;;;;;2.29;100.00;96815.59;4961350;28;20753;-71
2022/12/28 01:16:23;;;;;;;0.20;0.20;;;;;;;2.35;100.00;96814.03;4966551;28;20065;-72
2022/12/28 01:19:13;;;;;;;0.20;0.20;;;;;;;2.33;100.00;96816.84;4963530;28;20471;-74
2022/12/28 01:22:00;;;;;;;0.20;0.20;;;;;;;2.42;100.00;96821.03;4963741;28;20581;-73
2022/12/28 01:24:46;;;;;;;0.17;0.17;;;;;;;2.41;100.00;96827.31;4964817;28;20596;-73
2022/12/28 01:27:32;;;;;;;0.20;0.20;;;;;;;2.48;100.00;96835.28;4966608;28;20050;-72
2022/12/28 01:30:18;;;;;;;0.20;0.20;;;;;;;2.40;100.00;96841.50;4963577;28;20081;-70
2022/12/28 01:33:03;;;;;;;0.20;0.20;;;;;;;2.43;100.00;96841.16;4942941;28;20095;-70
2022/12/28 01:35:49;;;;;;;0.20;0.20;;;;;;;2.37;100.00;96841.91;4944743;28;20049;-73
2022/12/28 01:38:37;;;;;;;0.20;0.20;;;;;;;2.42;100.00;96818.38;4957467;28;20047;-73
2022/12/28 01:41:23;;;;;;;0.20;0.20;;;;;;;2.28;100.00;96803.41;4957172;28;20039;-72
2022/12/28 01:44:09;;;;;;;0.20;0.20;;;;;;;2.14;100.00;96806.91;4943382;28;20162;-72
2022/12/28 01:47:01;;;;;;;0.20;0.20;;;;;;;2.16;100.00;96804.91;4955721;28;20035;-74
2022/12/28 01:50:00;;;;;;;0.20;0.20;;;;;;;2.14;100.00;96802.44;4946093;28;20361;-74
2022/12/28 01:53:02;;;;;;;0.20;0.20;;;;;;;2.19;100.00;96808.00;4944124;28;20325;-74
2022/12/28 01:55:48;;;;;;;0.15;0.15;;;;;;;2.15;100.00;96801.44;4946176;28;20045;-73
2022/12/28 01:58:34;;;;;;;0.20;0.20;;;;;;;2.09;100.00;96790.81;4942869;28;20085;-74
2022/12/28 02:01:20;;;;;;;0.20;0.20;;;;;;;2.11;100.00;96779.06;4954367;28;20066;-73
2022/12/28 02:04:07;;;;;;;0.10;0.10;;;;;;;2.07;100.00;96776.97;4964908;28;20054;-73
2022/12/28 02:06:53;;;;;;;0.20;0.20;;;;;;;2.08;100.00;96775.97;4964714;28;20492;-72
2022/12/28 02:09:42;;;;;;;0.20;0.20;;;;;;;2.06;100.00;96765.59;4966816;28;20074;-72
2022/12/28 02:12:28;;;;;;;0.20;0.20;;;;;;;2.14;100.00;96762.03;4964726;28;20117;-73
2022/12/28 02:15:14;;;;;;;0.20;0.20;;;;;;;2.05;100.00;96760.53;4964630;28;20054;-73
2022/12/28 02:18:01;;;;;;;0.20;0.20;;;;;;;2.03;100.00;96754.63;4964514;28;20749;-70
2022/12/28 02:21:06;;;;;;;0.20;0.20;;;;;;;2.01;100.00;96756.59;4965594;28;20030;-71
2022/12/28 02:24:25;;;;;;;0.20;0.20;;;;;;;2.04;100.00;96753.63;4964596;28;20077;-72
2022/12/28 02:27:29;;;;;;;0.20;0.20;;;;;;;2.06;100.00;96751.59;4968083;28;20050;-73
2022/12/28 02:30:18;;;;;;;0.15;0.15;;;;;;;2.08;100.00;96757.50;4967587;28;20486;-71
2022/12/28 02:33:15;;;;;;;0.20;0.20;;;;;;;2.17;100.00;96749.25;4948523;28;20360;-72
2022/12/28 02:36:10;;;;;;;0.10;0.10;;;;;;;2.12;100.00;96749.03;4949958;28;20342;-71
2022/12/28 02:39:22;;;;;;;0.20;0.20;;;;;;;2.11;100.00;96747.41;4948034;28;20129;-71
2022/12/28 02:42:09;;;;;;;0.20;0.20;;;;;;;2.25;100.00;96753.59;4949657;28;20039;-73
2022/12/28 02:51:32;;;;;;;0.20;0.20;;;;;;;2.19;100.00;96730.59;4947960;28;20031;-73
2022/12/28 02:58:48;;;;;;;0.20;0.20;;;;;;;2.15;100.00;96709.03;4947629;28;20039;-74
2022/12/28 03:01:51;;;;;;;0.20;0.20;;;;;;;2.03;100.00;96681.53;4910734;29;20056;-73
2022/12/28 03:05:07;;;;;;;0.20;0.20;;;;;;;2.00;100.00;96691.63;4960699;28;20275;-74
2022/12/28 03:08:19;;;;;;;0.10;0.10;;;;;;;2.01;100.00;96691.44;4959886;28;20039;-73
2022/12/28 03:11:10;;;;;;;0.13;0.13;;;;;;;1.98;100.00;96683.09;4961869;28;20983;-73
2022/12/28 03:14:06;;;;;;;0.17;0.17;;;;;;;1.98;100.00;96680.44;4946574;28;20081;-70
2022/12/28 03:32:36;;;;;;;0.20;0.20;;;;;;;1.92;100.00;96648.50;4961042;28;20050;-73
2022/12/28 03:35:30;;;;;;;0.10;0.10;;;;;;;1.92;100.00;96639.78;4960270;28;20176;-71
2022/12/28 03:38:27;;;;;;;0.20;0.20;;;;;;;1.97;100.00;96650.59;4959971;28;20113;-72
2022/12/28 03:41:38;;;;;;;0.20;0.20;;;;;;;1.95;100.00;96642.88;4942188;28;20105;-74
2022/12/28 03:44:51;;;;;;;0.20;0.20;;;;;;;2.04;100.00;96640.09;4961089;28;20150;-73
2022/12/28 03:47:39;;;;;;;0.10;0.10;;;;;;;2.12;100.00;96637.31;4931442;28;20151;-73
2022/12/28 03:50:25;;;;;;;0.20;0.20;;;;;;;2.11;100.00;96633.06;4945590;28;20455;-73
2022/12/28 03:53:11;;;;;;;0.10;0.10;;;;;;;2.07;100.00;96619.41;4942000;28;20050;-72
2022/12/28 03:56:13;;;;;;;0.20;0.20;;;;;;;2.16;100.00;96620.06;4956123;28;20296;-73
2022/12/28 03:59:00;;;;;;;0.20;0.20;;;;;;;2.09;100.00;96617.38;4956905;28;20565;-71
2022/12/28 04:01:55;;;;;;;0.10;0.10;;;;;;;2.06;100.00;96611.69;4970857;28;20133;-72
2022/12/28 04:04:41;;;;;;;0.17;0.17;;;;;;;2.13;100.00;96609.91;4965431;28;20448;-72
2022/12/28 04:07:29;;;;;;;0.20;0.20;;;;;;;2.09;100.00;96603.38;4965506;28;20100;-74
2022/12/28 04:10:15;;;;;;;0.20;0.20;;;;;;;2.07;100.00;96597.47;4963531;28;20042;-72
2022/12/28 04:13:03;;;;;;;0.20;0.20;;;;;;;2.10;100.00;96603.19;4965465;28;20354;-73
2022/12/28 04:16:10;;;;;;;0.20;0.20;;;;;;;2.12;100.00;96595.91;4967106;28;20133;-71
2022/12/28 04:18:57;;;;;;;0.20;0.20;;;;;;;2.13;100.00;96602.81;4977980;28;20129;-73
2022/12/28 04:21:43;;;;;;;0.20;0.20;;;;;;;2.14;100.00;96593.88;4963137;28;20045;-73
2022/12/28 04:24:29;;;;;;;0.17;0.17;;;;;;;2.25;100.00;96597.78;4964612;28;20073;-74
2022/12/28 04:27:15;;;;;;;0.20;0.20;;;;;;;2.39;100.00;96602.16;4974711;28;20095;-72
2022/12/28 04:30:04;;;;;;;0.20;0.20;;;;;;;2.41;100.00;96594.88;4964948;28;20045;-72
2022/12/28 04:32:54;;;;;;;0.20;0.20;;;;;;;2.56;100.00;96584.19;4977991;28;20604;-72
2022/12/28 04:35:40;;;;;;;0.20;0.20;;;;;;;2.67;100.00;96585.47;4970839;28;20442;-73
2022/12/28 04:38:26;;;;;;;0.20;0.20;;;;;;;2.60;100.00;96576.69;4963631;28;20282;-73
2022/12/28 04:41:12;;;;;;;0.20;0.20;;;;;;;2.58;100.00;96560.22;4965819;28;20105;-72
2022/12/28 04:43:58;;;;;;;0.20;0.20;;;;;;;2.67;100.00;96566.97;4963478;28;20046;-73
2022/12/28 04:46:44;;;;;;;0.20;0.20;;;;;;;2.77;100.00;96564.78;4965329;28;20046;-74
2022/12/28 04:49:29;;;;;;;0.20;0.20;;;;;;;2.77;100.00;96573.53;4961767;28;20490;-73
2022/12/28 04:52:15;;;;;;;0.20;0.20;;;;;;;2.85;100.00;96569.88;4963161;28;20045;-73
2022/12/28 04:55:03;;;;;;;0.20;0.20;;;;;;;2.96;100.00;96560.59;4965398;28;20418;-72
2022/12/28 04:57:49;;;;;;;0.20;0.20;;;;;;;2.95;100.00;96570.34;4959059;28;20038;-73
2022/12/28 05:00:35;;;;;;;0.20;0.20;;;;;;;3.03;100.00;96564.88;4953695;28;20062;-74
2022/12/28 05:03:21;;;;;;;0.10;0.10;;;;;;;3.01;100.00;96558.97;4944595;28;20047;-74
2022/12/28 05:06:11;;;;;;;0.20;0.20;;;;;;;3.18;100.00;96543.56;4946024;28;20587;-71
2022/12/28 05:08:57;;;;;;;0.20;0.20;;;;;;;3.24;100.00;96540.13;4945734;28;20312;-74
2022/12/28 05:11:42;;;;;;;0.20;0.20;;;;;;;3.24;100.00;96547.25;4945153;28;20061;-74
2022/12/28 05:14:28;;;;;;;0.20;0.20;;;;;;;3.29;100.00;96542.19;4946549;28;20043;-73
2022/12/28 05:17:14;;;;;;;0.10;0.10;;;;;;;3.33;100.00;96540.75;4947005;28;20031;-73
2022/12/28 05:20:00;;;;;;;0.10;0.10;;;;;;;3.34;100.00;96534.44;4946371;28;20121;-73
2022/12/28 05:22:46;;;;;;;0.20;0.20;;;;;;;3.40;100.00;96528.34;4943310;28;20119;-72
2022/12/28 05:25:32;;;;;;;0.20;0.20;;;;;;;3.33;100.00;96519.59;4944913;28;20299;-73
2022/12/28 05:28:18;;;;;;;0.10;0.10;;;;;;;3.33;100.00;96514.28;4945750;28;20661;-72
2022/12/28 05:31:06;;;;;;;0.20;0.20;;;;;;;3.34;100.00;96515.91;4931180;28;20051;-73
2022/12/28 05:33:52;;;;;;;0.20;0.20;;;;;;;3.32;100.00;96516.13;4943680;28;20039;-71
2022/12/28 05:36:39;;;;;;;0.20;0.20;;;;;;;3.39;100.00;96518.78;4944678;28;20125;-73
2022/12/28 05:39:24;;;;;;;0.20;0.20;;;;;;;3.47;100.00;96523.88;4942914;28;20173;-72
2022/12/28 05:42:10;;;;;;;0.10;0.10;;;;;;;3.43;100.00;96522.66;4945695;28;20034;-73
2022/12/28 05:44:56;;;;;;;0.17;0.17;;;;;;;3.49;100.00;96523.66;4945300;28;20073;-74
2022/12/28 05:47:42;;;;;;;0.10;0.10;;;;;;;3.51;100.00;96508.44;4943783;28;20053;-75
2022/12/28 05:50:28;;;;;;;0.20;0.20;;;;;;;3.54;100.00;96502.72;4945605;28;20082;-73
2022/12/28 05:53:14;;;;;;;0.20;0.20;;;;;;;3.56;100.00;96495.38;4943993;28;20105;-72
2022/12/28 05:56:13;;;;;;;0.10;0.10;;;;;;;3.56;100.00;96496.19;4946204;28;20578;-74
2022/12/28 05:59:01;;;;;;;0.20;0.20;;;;;;;3.55;100.00;96504.34;4944978;28;20170;-74
2022/12/28 06:01:49;;;;;;;0.10;0.10;;;;;;;3.66;100.00;96497.63;4954740;28;20554;-73
2022/12/28 06:04:35;;;;;;;0.20;0.20;;;;;;;3.69;100.00;96502.53;4943374;28;20053;-72
2022/12/28 06:07:21;;;;;;;0.20;0.20;;;;;;;3.76;100.00;96498.88;4941088;28;20345;-74
2022/12/28 06:10:08;;;;;;;0.10;0.10;;;;;;;3.83;100.00;96498.88;4945545;28;20260;-75
2022/12/28 06:12:53;;;;;;;0.20;0.20;;;;;;;3.89;100.00;96488.28;4942616;28;20046;-75
2022/12/28 06:15:42;;;;;;;0.20;0.20;;;;;;;4.00;100.00;96499.25;4946686;28;20152;-75
2022/12/28 06:18:28;;;;;;;0.10;0.10;;;;;;;4.09;100.00;96493.53;4955309;28;20073;-75
2022/12/28 06:21:15;;;;;;;0.20;0.20;;;;;;;4.12;100.00;96490.44;4945142;28;20039;-72
2022/12/28 06:24:02;;;;;;;0.10;0.10;;;;;;;4.20;100.00;96489.41;4944130;28;20184;-75
2022/12/28 06:26:48;;;;;;;0.10;0.10;;;;;;;4.25;100.00;96484.31;4945026;28;20039;-75
2022/12/28 06:29:34;;;;;;;0.20;0.20;;;;;;;4.25;100.00;96496.75;4943017;28;20046;-73
2022/12/28 06:32:20;;;;;;;0.20;0.20;;;;;;;4.33;100.00;96480.63;4961148;28;20070;-72
2022/12/28 06:35:06;;;;;;;0.10;0.10;;;;;;;4.28;100.00;96475.97;4963246;28;20357;-75
2022/12/28 06:37:52;;;;;;;0.10;0.10;;;;;;;4.33;100.00;96462.09;4963703;28;20088;-72
2022/12/28 06:40:38;;;;;;;0.20;0.20;;;;;;;4.36;100.00;96459.03;4963718;28;20046;-75
2022/12/28 06:43:23;;;;;;;0.10;0.10;;;;;;;4.38;100.00;96449.03;4962148;28;20038;-76
2022/12/28 06:46:11;;;;;;;0.20;0.20;;;;;;;4.40;100.00;96445.13;4964754;28;20046;-74
2022/12/28 06:48:57;;;;;;;0.20;0.20;;;;;;;4.35;100.00;96449.44;4962852;28;20034;-75
2022/12/28 06:51:43;;;;;;;0.17;0.17;;;;;;;4.40;100.00;96468.19;4962673;28;20311;-75
2022/12/28 06:54:29;;;;;;;0.20;0.20;;;;;;;4.40;100.00;96457.56;4949691;28;20046;-75
2022/12/28 06:57:14;;;;;;;0.20;0.20;;;;;;;4.45;100.00;96460.41;4964845;28;20038;-74
2022/12/28 07:00:03;;;;;;;0.10;0.10;;;;;;;4.45;100.00;96452.47;4963769;28;20542;-75
2022/12/28 07:02:56;;;;;;;0.20;0.20;;;;;;;4.46;100.00;96452.25;4961412;28;20818;-75
2022/12/28 07:05:42;;;;;;;0.13;0.13;;;;;;;4.49;100.00;96445.72;4963169;28;20101;-72
2022/12/28 07:08:28;;;;;;;0.20;0.20;;;;;;;4.45;100.00;96450.63;4963850;28;20043;-73
2022/12/28 07:11:20;;;;;;;0.20;0.20;;;;;;;4.51;100.00;96448.97;4980484;28;20042;-75
2022/12/28 07:14:06;;;;;;;0.20;0.20;;;;;;;4.48;100.00;96452.03;4968648;28;20050;-74
2022/12/28 07:16:52;;;;;;;0.13;0.13;;;;;;;4.59;100.00;96439.97;4967906;28;20145;-74
2022/12/28 07:19:38;;;;;;;0.20;0.20;;;;;;;4.57;100.00;96448.13;4968579;28;20066;-75
2022/12/28 07:22:24;;;;;;;0.10;0.10;;;;;;;4.66;100.00;96441.56;4967966;28;20434;-72
2022/12/28 07:25:10;;;;;;;0.10;0.10;;;;;;;4.61;100.00;96437.94;4980755;28;20046;-73
2022/12/28 07:27:55;;;;;;;0.20;0.20;;;;;;;4.63;100.00;96446.47;4967652;28;20585;-74
2022/12/28 07:30:41;;;;;;;0.10;0.10;;;;;;;4.61;100.00;96425.50;4960071;28;20089;-74
2022/12/28 07:33:27;;;;;;;0.20;0.20;;;;;;;4.68;100.00;96434.22;4948955;28;20051;-74
2022/12/28 07:36:16;;;;;;;0.13;0.13;;;;;;;4.68;100.00;96444.03;4949254;28;20621;-75
2022/12/28 07:39:02;;;;;;;0.10;0.10;;;;;;;4.64;100.00;96427.72;4949115;28;20051;-74
2022/12/28 07:41:48;;;;;;;0.20;0.20;;;;;;;4.69;100.00;96443.81;4946282;28;20748;-74
2022/12/28 07:44:40;;;;;;;0.10;0.10;;;;;;;4.67;100.00;96448.50;4946790;28;20058;-75
2022/12/28 07:47:26;;;;;;;0.10;0.10;;;;;;;4.75;100.00;96447.44;4605638;28;9999700;-73
2022/12/28 07:50:12;;;;;;;0.20;0.20;;;;;;;4.72;100.00;96432.75;4607925;28;9999989;-71
2022/12/28 07:52:59;;;;;;;0.10;0.10;;;;;;;4.81;100.00;96422.72;4945979;28;20269;-72
2022/12/28 07:55:54;;;;;;;0.10;0.10;;;;;;;4.71;100.00;96447.03;4946443;28;20043;-75
2022/12/28 07:58:41;;;;;;;0.10;0.10;;;;;;;4.79;100.00;96446.00;4944058;28;20787;-74
2022/12/28 08:01:30;;;;;;;0.10;0.10;;;;;;;4.79;100.00;96435.38;4945808;28;20513;-72
2022/12/28 08:04:16;;;;;;;0.10;0.10;;;;;;;4.82;100.00;96426.19;4946352;28;20042;-73
2022/12/28 08:07:02;;;;;;;0.10;0.10;;;;;;;4.78;100.00;96419.69;4945850;28;20609;-72
2022/12/28 08:09:48;;;;;;;0.17;0.17;;;;;;;4.81;100.00;96416.59;4946308;28;20141;-75
2022/12/28 08:12:34;;;;;;;0.20;0.20;;;;;;;4.80;100.00;96425.59;4946102;28;20502;-75
2022/12/28 08:15:19;;;;;;;0.20;0.20;;;;;;;4.79;100.00;96429.28;4945904;28;20043;-74
2022/12/28 08:18:05;;;;;;;0.10;0.10;;;;;;;4.85;100.00;96433.72;4945766;28;20734;-70
2022/12/28 08:20:51;;;;;;;0.20;0.20;;;;;;;4.89;100.00;96419.00;4945732;28;20538;-73
2022/12/28 08:23:41;;;;;;;0.10;0.10;;;;;;;4.90;100.00;96421.47;4941574;28;20333;-74
2022/12/28 08:26:30;;;;;;;0.20;0.20;;;;;;;4.87;100.00;96431.66;4959356;28;20424;-73
2022/12/28 08:29:19;;;;;;;0.20;0.20;;;;;;;4.94;100.00;96424.50;4946110;28;20276;-74
2022/12/28 08:32:05;;;;;;;0.20;0.20;;;;;;;4.91;100.00;96422.28;4963524;28;20304;-75
2022/12/28 08:34:50;;;;;;;0.20;0.20;;;;;;;4.94;100.00;96424.50;4963630;28;20378;-72
2022/12/28 08:37:36;;;;;;;0.20;0.20;;;;;;;4.98;100.00;96423.84;4965053;28;20039;-72
2022/12/28 08:40:26;;;;;;;0.20;0.20;;;;;;;4.94;100.00;96433.25;4968689;28;20569;-74
2022/12/28 08:43:12;;;;;;;0.10;0.10;;;;;;;4.98;100.00;96423.84;4967189;28;20053;-72
2022/12/28 08:46:09;;;;;;;0.10;0.10;;;;;;;5.08;100.00;96426.03;4965109;28;20697;-71
2022/12/28 08:48:57;;;;;;;0.10;0.10;;;;;;;5.00;100.00;96423.66;4962190;28;20307;-74
2022/12/28 08:51:43;;;;;;;0.20;0.20;;;;;;;4.97;100.00;96432.81;4965505;28;20550;-74
2022/12/28 08:54:28;;;;;;;0.10;0.10;;;;;;;5.07;100.00;96420.94;4966220;28;20049;-72
2022/12/28 08:57:14;;;;;;;0.20;0.20;;;;;;;5.09;100.00;96432.97;4966614;28;20483;-72
2022/12/28 09:00:00;;;;;;;0.10;0.10;;;;;;;5.06;100.00;96437.88;4966590;28;20489;-73
2022/12/28 09:02:47;;;;;;;0.20;0.20;;;;;;;5.04;100.00;96438.09;4964291;28;20876;-74
2022/12/28 09:05:36;;;;;;;0.20;0.20;;;;;;;5.11;100.00;96435.41;4964981;28;20053;-74
2022/12/28 09:08:22;;;;;;;0.20;0.20;;;;;;;5.07;100.00;96432.38;4967108;28;20050;-73
2022/12/28 09:11:12;;;;;;;0.20;0.20;;;;;;;5.16;100.00;96425.78;4969415;28;20101;-75
2022/12/28 09:13:58;;;;;;;0.10;0.10;;;;;;;5.13;100.00;96434.13;4966538;28;20819;-72
2022/12/28 09:16:44;;;;;;;0.20;0.20;;;;;;;5.08;100.00;96436.66;4966009;28;20042;-74
2022/12/28 09:19:29;;;;;;;0.20;0.20;;;;;;;5.13;100.00;96438.63;4967177;28;20232;-74
2022/12/28 09:22:15;;;;;;;0.20;0.20;;;;;;;5.16;100.00;96441.69;4965711;28;20058;-75
2022/12/28 09:25:01;;;;;;;0.10;0.10;;;;;;;5.21;100.00;96438.38;4967685;28;20050;-75
2022/12/28 09:27:48;;;;;;;0.20;0.20;;;;;;;5.16;100.00;96452.31;4964236;28;20248;-75
2022/12/28 09:30:34;;;;;;;0.20;0.20;;;;;;;5.07;100.00;96458.91;4959604;28;20042;-72
2022/12/28 09:36:25;;;;;;;0.13;0.13;;;;;;;5.22;100.00;96459.41;4948062;28;20034;-74
2022/12/28 09:39:19;;;;;;;0.20;0.20;;;;;;;5.11;100.00;96452.13;4945745;28;20047;-74
2022/12/28 09:42:22;;;;;;;0.13;0.13;;;;;;;5.16;100.00;96454.97;4949647;28;20531;-72
2022/12/28 09:45:11;;;;;;;0.20;0.20;;;;;;;5.13;100.00;96452.72;4948883;28;20058;-72
2022/12/28 09:48:05;;;;;;;0.20;0.20;;;;;;;5.06;100.00;96451.97;4930729;28;20039;-73
2022/12/28 09:50:51;;;;;;;0.20;0.20;;;;;;;5.16;100.00;96452.31;4943170;28;20550;-75
2022/12/28 09:53:37;;;;;;;0.10;0.10;;;;;;;5.18;100.00;96460.03;4943509;28;20065;-74
2022/12/28 09:56:35;;;;;;;0.13;0.13;;;;;;;5.28;100.00;96453.22;4958046;28;20038;-71
2022/12/28 09:59:24;;;;;;;0.10;0.10;;;;;;;5.33;100.00;96452.59;4946820;28;20050;-74
2022/12/28 10:02:33;;;;;;;0.20;0.20;;;;;;;5.28;100.00;96450.56;4962783;28;20077;-72
2022/12/28 10:05:20;;;;;;;0.10;0.10;;;;;;;5.25;100.00;96436.94;4978947;28;21017;-72
2022/12/28 10:08:11;;;;;;;0.20;0.20;;;;;;;5.16;100.00;96439.03;4977233;28;20629;-73
2022/12/28 10:11:01;;;;;;;0.20;0.20;;;;;;;5.29;100.00;96431.00;4966630;28;20927;-75
2022/12/28 10:13:54;;;;;;;0.20;0.20;;;;;;;5.29;100.00;96436.31;4964775;28;20092;-74
2022/12/28 10:16:40;;;;;;;0.15;0.15;;;;;;;5.36;100.00;96435.41;4964435;28;20534;-75
2022/12/28 10:19:28;;;;;;;0.20;0.20;;;;;;;5.34;100.00;96426.88;4965316;28;20045;-74
2022/12/28 10:22:18;;;;;;;0.10;0.10;;;;;;;5.49;100.00;96435.31;4966085;28;20097;-75
2022/12/28 10:25:17;;;;;;;0.20;0.20;;;;;;;5.51;100.00;96418.13;4967172;28;20065;-72
2022/12/28 10:28:07;;;;;;;0.20;0.20;;;;;;;5.58;100.00;96418.09;4965256;28;20666;-73
2022/12/28 10:31:08;;;;;;;0.20;0.20;;;;;;;5.53;100.00;96424.06;4959214;28;20105;-72
2022/12/28 10:33:54;;;;;;;0.10;0.10;;;;;;;5.72;100.00;96419.59;4943515;28;20062;-75
2022/12/28 10:36:40;;;;;;;0.20;0.20;;;;;;;5.68;100.00;96418.44;4946502;28;20443;-74
2022/12/28 10:39:28;;;;;;;0.20;0.20;;;;;;;5.84;100.00;96412.53;4946704;28;20545;-72
2022/12/28 10:42:26;;;;;;;0.20;0.20;;;;;;;5.92;100.00;96421.28;4947990;28;20047;-73
2022/12/28 10:45:18;;;;;;;0.10;0.10;;;;;;;5.87;100.00;96405.97;4947968;28;20058;-72
2022/12/28 10:48:16;;;;;;;0.20;0.20;;;;;;;5.91;100.00;96390.44;4948662;28;20450;-74
2022/12/28 10:51:08;;;;;;;0.10;0.10;;;;;;;5.95;100.00;96400.41;4962216;28;20050;-75
2022/12/28 10:53:56;;;;;;;0.10;0.10;;;;;;;6.10;100.00;96384.91;4949430;28;20567;-75
2022/12/28 10:56:48;;;;;;;0.20;0.20;;;;;;;6.12;100.00;96382.03;4961754;28;20506;-75
2022/12/28 10:59:34;;;;;;;0.10;0.10;;;;;;;6.04;100.00;96384.97;4947335;28;20073;-74
2022/12/28 11:02:28;;;;;;;0.10;0.10;;;;;;;6.12;100.00;96392.66;4966680;28;20057;-71
2022/12/28 11:05:20;;;;;;;0.20;0.20;;;;;;;6.05;100.00;96373.31;4968725;28;20495;-73
2022/12/28 11:08:06;;;;;;;0.10;0.10;;;;;;;6.10;100.00;96363.66;4966337;28;20479;-72
2022/12/28 11:10:56;;;;;;;0.20;0.20;;;;;;;6.02;100.00;96379.09;4968762;28;20593;-71
2022/12/28 11:13:46;;;;;;;0.10;0.10;;;;;;;6.11;100.00;96372.44;4966653;28;20054;-75
2022/12/28 11:16:36;;;;;;;0.10;0.10;;;;;;;6.19;100.00;96358.84;4967159;28;20430;-75
2022/12/28 11:19:24;;;;;;;0.20;0.20;;;;;;;6.36;100.00;96365.19;4970253;28;20043;-73
2022/12/28 11:22:12;;;;;;;0.13;0.13;;;;;;;6.35;100.00;96354.78;4971133;28;20060;-73
2022/12/28 11:25:00;;;;;;;0.20;0.20;;;;;;;6.50;100.00;96346.41;4968738;28;20046;-74
2022/12/28 11:27:47;;;;;;;0.15;0.15;;;;;;;6.40;100.00;96353.06;4967379;28;20613;-73
2022/12/28 11:30:33;;;;;;;0.10;0.10;;;;;;;6.28;100.00;96336.25;4964159;28;20055;-74
2022/12/28 11:33:27;;;;;;;0.20;0.20;;;;;;;6.21;100.00;96346.16;4951214;28;20098;-71
2022/12/28 11:36:23;;;;;;;0.20;0.20;;;;;;;6.30;100.00;96338.69;4948214;28;20070;-73
2022/12/28 11:39:24;;;;;;;0.10;0.10;;;;;;;6.20;100.00;96323.28;4962656;28;20149;-73
2022/12/28 11:42:31;;;;;;;0.20;0.20;;;;;;;6.38;100.00;96320.59;4949378;28;20082;-74
2022/12/28 11:45:50;;;;;;;0.10;0.10;;;;;;;6.35;100.00;96318.38;4948855;28;20050;-73
2022/12/28 11:48:41;;;;;;;0.20;0.20;;;;;;;6.46;100.00;96318.63;4948624;28;20693;-74
2022/12/28 11:51:36;;;;;;;;;;;;;;;6.35;100.00;96313.06;4949316;28;20050;-75
2022/12/28 11:54:35;;;;;;;0.20;0.20;;;;;;;6.14;100.00;96324.97;4949926;28;20439;-73
2022/12/28 11:57:33;;;;;;;0.20;0.20;;;;;;;6.18;100.00;96309.41;4950058;28;20047;-75
2022/12/28 12:00:19;;;;;;;0.10;0.10;;;;;;;6.16;100.00;96297.41;4949407;28;20038;-75
2022/12/28 12:03:05;;;;;;;0.20;0.20;;;;;;;6.18;100.00;96298.78;4967763;28;20577;-72
2022/12/28 12:05:52;;;;;;;0.10;0.10;;;;;;;6.08;100.00;96315.25;4966914;28;20049;-75
2022/12/28 12:08:40;;;;;;;0.20;0.20;;;;;;;6.12;100.00;96312.94;4967700;28;20042;-75
2022/12/28 12:11:25;;;;;;;0.13;0.13;;;;;;;6.15;100.00;96317.84;4968863;28;20101;-73
2022/12/28 12:14:14;;;;;;;0.20;0.20;;;;;;;6.18;100.00;96317.38;4968605;28;20129;-74
2022/12/28 12:17:14;;;;;;;0.20;0.20;;;;;;;6.35;100.00;96307.75;4968414;28;20402;-71
2022/12/28 12:20:04;;;;;;;;;;;;;;;6.48;100.00;96300.63;4969364;28;20124;-75
2022/12/28 12:23:01;;;;;;;0.20;0.20;;;;;;;6.34;100.00;96315.94;4967765;28;19969;-73
2022/12/28 12:25:53;;;;;;;0.10;0.10;;;;;;;6.53;100.00;96308.72;4979229;28;20479;-72
2022/12/28 12:28:52;;;;;;;0.20;0.20;;;;;;;6.48;100.00;96319.25;4968507;28;20418;-74
2022/12/28 12:31:46;;;;;;;0.20;0.20;;;;;;;6.18;100.00;96317.38;4955736;28;20468;-74
2022/12/28 12:34:32;;;;;;;0.10;0.10;;;;;;;6.06;100.00;96324.47;4949618;28;20089;-74
2022/12/28 12:37:34;;;;;;;0.10;0.10;;;;;;;5.96;100.00;96300.28;4936559;28;20047;-71
2022/12/28 12:40:43;;;;;;;0.17;0.17;;;;;;;6.06;100.00;96301.38;4946786;28;20058;-73
2022/12/28 12:43:50;;;;;;;0.17;0.17;;;;;;;6.08;100.00;96280.72;4925686;28;20088;-72
2022/12/28 12:47:02;;;;;;;0.10;0.10;;;;;;;5.94;100.00;96291.72;4949961;28;20214;-71
2022/12/28 12:50:10;;;;;;;0.10;0.10;;;;;;;6.09;100.00;96292.97;4946614;28;20043;-72
2022/12/28 12:53:05;;;;;;;0.20;0.20;;;;;;;5.98;100.00;96284.94;4947651;28;20039;-71
2022/12/28 12:56:05;;;;;;;0.10;0.10;;;;;;;6.03;100.00;96283.22;4947146;28;20819;-72
2022/12/28 12:59:23;;;;;;;0.20;0.20;;;;;;;6.07;100.00;96281.75;4947355;28;20757;-71
2022/12/28 13:02:31;;;;;;;0.20;0.20;;;;;;;6.02;100.00;96268.34;4963745;28;20619;-73
2022/12/28 13:05:20;;;;;;;0.20;0.20;;;;;;;5.98;100.00;96271.66;4981045;28;20669;-71
2022/12/28 13:08:20;;;;;;;0.20;0.20;;;;;;;5.81;100.00;96280.19;4966915;28;20065;-72
2022/12/28 13:11:11;;;;;;;0.20;0.20;;;;;;;5.85;100.00;96276.06;4968606;28;20691;-71
2022/12/28 13:13:57;;;;;;;0.20;0.20;;;;;;;5.91;100.00;96278.88;4966134;28;20049;-72
2022/12/28 13:16:46;;;;;;;0.10;0.10;;;;;;;5.86;100.00;96271.56;4967532;28;20517;-75
2022/12/28 13:19:33;;;;;;;0.10;0.10;;;;;;;5.94;100.00;96267.84;4964871;28;20042;-76
2022/12/28 13:22:32;;;;;;;0.10;0.10;;;;;;;5.77;100.00;96263.09;4967775;28;20112;-71
2022/12/28 13:25:30;;;;;;;0.20;0.20;;;;;;;5.77;100.00;96270.25;4967074;28;20050;-74
2022/12/28 13:28:21;;;;;;;0.20;0.20;;;;;;;5.82;100.00;96265.88;4967115;28;20139;-72
2022/12/28 13:31:17;;;;;;;0.10;0.10;;;;;;;5.78;100.00;96254.09;4964727;28;20428;-74
2022/12/28 13:34:12;;;;;;;0.10;0.10;;;;;;;5.78;100.00;96248.78;4967733;28;20156;-75
2022/12/28 13:37:00;;;;;;;0.10;0.10;;;;;;;5.81;100.00;96242.22;4964244;28;20584;-74
2022/12/28 13:39:46;;;;;;;0.10;0.10;;;;;;;5.84;100.00;96236.47;4967743;28;20364;-74
2022/12/28 13:42:50;;;;;;;0.20;0.20;;;;;;;5.84;100.00;96231.97;4968622;28;20621;-74
2022/12/28 13:45:36;;;;;;;0.20;0.20;;;;;;;5.92;100.00;96232.72;4968254;28;20434;-75
2022/12/28 13:48:23;;;;;;;0.10;0.10;;;;;;;5.95;100.00;96219.00;4966988;28;20136;-71
2022/12/28 13:51:14;;;;;;;0.10;0.10;;;;;;;5.90;100.00;96216.97;4966001;28;20485;-72